• Join FlightAware (Why Join?)
  • Login
  • US Flag 
12:31PM EDT


 

Airport Tracker/Info


-or-


 

Live Flight TrackerFlight Track Log ✈ JA-822J ✈ 05-Feb-2014 ✈ RJTT / HND - ZBAA / PEK

Flight Track Log - Related Links

Times and Time Zones

All times are in EST time to prevent confusion due to time zone crossing. See the JA-822J flight status page for this flight to view local times or setup timezone preferences in your user account.

Time Position Orientation Groundspeed Altitude Reporting Facility
EST Latitude Longitude Course Direction KTS MPH feet Rate Location/Type
07:26PM 35.5770 139.7810 338° Northwest 139 160 1,500  Level FlightAware ADS-B
07:26PM 35.5810 139.7810 360° North 143 165 1,800 2,760 Climbing FlightAware ADS-B
07:26PM 35.5850 139.7830 22° Northeast 151 174 2,100 2,280 Climbing FlightAware ADS-B
07:26PM 35.5880 139.7860 39° Northeast 161 185 2,300 2,700 Climbing FlightAware ADS-B
07:27PM 35.5910 139.7910 54° Northeast 169 194 2,600 2,400 Climbing FlightAware ADS-B
07:27PM 35.5980 139.8080 63° Northeast 179 206 3,300 1,620 Climbing FlightAware ADS-B
07:27PM 35.6040 139.8220 62° Northeast 211 243 3,600 1,020 Climbing FlightAware ADS-B
07:27PM 35.6080 139.8320 64° Northeast 225 259 3,700 1,560 Climbing FlightAware ADS-B
07:28PM 35.6100 139.8550 84° East 811 933 4,200 1,500 Climbing FlightAware ADS-B
07:28PM 35.6100 139.8620 90° East 266 306 4,300 2,580 Climbing FlightAware ADS-B
07:28PM 35.6130 139.9200 86° East 284 327 6,100 3,060 Climbing FlightAware ADS-B
07:28PM 35.6180 139.9320 63° Northeast 286 329 6,500 2,760 Climbing FlightAware ADS-B
07:29PM 35.6220 139.9390 55° Northeast 286 329 6,700 3,000 Climbing FlightAware ADS-B
07:29PM 35.6350 139.9510 37° Northeast 281 323 7,400 3,300 Climbing FlightAware ADS-B
07:29PM 35.6420 139.9550 25° Northeast 278 320 7,700 2,460 Climbing FlightAware ADS-B
07:29PM 35.6470 139.9560 North 276 318 7,900 3,780 Climbing FlightAware ADS-B
07:29PM 35.6570 139.9570 North 272 313 8,400 4,320 Climbing FlightAware ADS-B
07:29PM 35.6630 139.9560 352° North 265 305 8,700 3,240 Climbing FlightAware ADS-B
07:29PM 35.6690 139.9540 345° North 258 297 9,000 3,840 Climbing FlightAware ADS-B
07:29PM 35.6770 139.9480 329° Northwest 243 280 9,600 5,700 Climbing FlightAware ADS-B
07:30PM 35.6870 139.9370 318° Northwest 219 252 10,900 6,000 Climbing FlightAware ADS-B
07:30PM 35.6920 139.9270 302° West 204 235 11,800 3,300 Climbing FlightAware ADS-B
07:30PM 35.7020 139.9000 295° West 210 242 12,900 2,040 Climbing FlightAware ADS-B
07:30PM 35.7040 139.8880 282° West 219 252 13,100 1,200 Climbing FlightAware ADS-B
07:31PM 35.7030 139.8700 266° West 241 277 13,400 1,980 Climbing FlightAware ADS-B
07:31PM 35.6960 139.8260 259° West 270 311 14,500 3,300 Climbing FlightAware ADS-B
07:32PM 35.6900 139.7760 262° West 262 302 16,900 3,900 Climbing FlightAware ADS-B
07:32PM 35.6880 139.7460 265° West 256 295 18,100 3,120 Climbing FlightAware ADS-B
07:32PM 35.6920 139.6950 276° West 262 302 19,800 3,000 Climbing FlightAware ADS-B
07:33PM 35.6940 139.6500 273° West 269 310 21,300 2,760 Climbing FlightAware ADS-B
07:33PM 35.6936 139.6560 95° East 267 307 22,500 2,580 Climbing FlightAware ADS-B
07:34PM 35.6970 139.5930 274° West 276 318 22,900 2,880 Climbing FlightAware ADS-B
07:34PM 35.6990 139.5450 273° West 280 322 24,400 2,580 Climbing FlightAware ADS-B
07:35PM 35.7019 139.4898 274° West 285 328 25,800 2,340 Climbing FlightAware ADS-B
07:35PM 35.7040 139.4400 273° West 292 336 27,000 2,280 Climbing FlightAware ADS-B
07:36PM 35.7061 139.4110 275° West 302 348 27,900 1,920 Climbing FlightAware ADS-B
07:36PM 35.7080 139.3770 274° West 304 350 28,200 1,740 Climbing FlightAware ADS-B
07:36PM 35.7100 139.3340 273° West 310 357 29,100 1,920 Climbing FlightAware ADS-B
07:37PM 35.7130 139.2620 273° West 319 367 30,300 1,800 Climbing FlightAware ADS-B
07:37PM 35.7133 139.2593 277° West 314 361 30,300 1,800 Level FlightAware ADS-B
07:37PM 35.7160 139.2070 274° West 325 374 31,200 1,860 Climbing FlightAware ADS-B
07:38PM 35.7174 139.1804 274° West 327 376 31,700 1,740 Climbing FlightAware ADS-B
07:38PM 35.7190 139.1410 273° West 331 381 32,300 1,740 Climbing FlightAware ADS-B
07:38PM 35.7190 139.1449 90° East 333 383 32,600 1,620 Climbing FlightAware ADS-B
07:39PM 35.7220 139.0830 273° West 336 387 33,100 1,260 Climbing FlightAware ADS-B
07:39PM 35.7250 139.0140 273° West 342 394 33,800 960 Climbing FlightAware ADS-B
07:39PM 35.7248 139.0156 99° East 342 394 33,800 960 Level FlightAware ADS-B
07:40PM 35.7280 138.9470 273° West 348 400 34,400 1,020 Climbing FlightAware ADS-B
07:41PM 35.7340 138.8260 274° West 365 420 35,400 960 Climbing FlightAware ADS-B
07:43PM 35.7907 138.6399 291° West  Level Estimated
07:44PM 35.8223 138.5355 291° West  Level Estimated
07:45PM 35.8539 138.4310 290° West  Level Estimated
07:46PM 35.8853 138.3263 290° West  Level Estimated
07:47PM 35.9167 138.2216 290° West  Level Estimated
07:48PM 35.9480 138.1169 290° West  Level Estimated
07:49PM 35.9792 138.0120 290° West  Level Estimated
07:50PM 36.0103 137.9070 290° West  Level Estimated
07:51PM 36.0414 137.8020 290° West  Level Estimated
07:52PM 36.0723 137.6969 290° West  Level Estimated
07:53PM 36.1031 137.5917 290° West  Level Estimated
07:54PM 36.1339 137.4864 290° West  Level Estimated
07:55PM 36.1645 137.3811 290° West  Level Estimated
07:56PM 36.1951 137.2756 290° West  Level Estimated
07:57PM 36.2255 137.1701 290° West  Level Estimated
07:58PM 36.2559 137.0645 290° West  Level Estimated
07:59PM 36.2862 136.9588 290° West  Level Estimated
08:00PM 36.3164 136.8530 290° West  Level Estimated
08:01PM 36.3465 136.7472 289° West  Level Estimated
08:02PM 36.3765 136.6412 289° West  Level Estimated
08:03PM 36.4064 136.5352 289° West  Level Estimated
08:04PM 36.4362 136.4291 289° West  Level Estimated
08:05PM 36.4659 136.3229 289° West  Level Estimated
08:06PM 36.4955 136.2167 289° West  Level Estimated
08:07PM 36.5251 136.1103 289° West  Level Estimated
08:08PM 36.5545 136.0039 289° West  Level Estimated
08:09PM 36.5838 135.8974 289° West  Level Estimated
08:10PM 36.6131 135.7908 289° West  Level Estimated
08:11PM 36.6422 135.6841 289° West  Level Estimated
08:12PM 36.6713 135.5774 289° West  Level Estimated
08:13PM 36.7002 135.4706 289° West  Level Estimated
08:14PM 36.7291 135.3637 289° West  Level Estimated
08:15PM 36.7579 135.2567 289° West  Level Estimated
08:16PM 36.7866 135.1496 289° West  Level Estimated
08:17PM 36.8151 135.0424 288° West  Level Estimated
08:18PM 36.8436 134.9352 288° West  Level Estimated
08:19PM 36.8720 134.8279 288° West  Level Estimated
08:20PM 36.9003 134.7205 288° West  Level Estimated
08:21PM 36.9285 134.6131 288° West  Level Estimated
08:22PM 36.9566 134.5055 288° West  Level Estimated
08:23PM 36.9846 134.3979 288° West  Level Estimated
08:24PM 37.0125 134.2902 288° West  Level Estimated
08:25PM 37.0403 134.1824 288° West  Level Estimated
08:26PM 37.0680 134.0745 288° West  Level Estimated
08:27PM 37.0956 133.9666 288° West  Level Estimated
08:28PM 37.1231 133.8586 288° West  Level Estimated
08:29PM 37.1505 133.7505 288° West  Level Estimated
08:30PM 37.1778 133.6423 288° West  Level Estimated
08:31PM 37.2051 133.5340 288° West  Level Estimated
08:32PM 37.2322 133.4257 287° West  Level Estimated
08:33PM 37.2592 133.3173 287° West  Level Estimated
08:34PM 37.2861 133.2088 287° West  Level Estimated
08:35PM 37.3129 133.1002 287° West  Level Estimated
08:36PM 37.3396 132.9916 287° West  Level Estimated
08:37PM 37.3663 132.8829 287° West  Level Estimated
08:38PM 37.3928 132.7741 287° West  Level Estimated
08:39PM 37.4192 132.6652 287° West  Level Estimated
08:40PM 37.4455 132.5563 287° West  Level Estimated
08:41PM 37.4717 132.4472 287° West  Level Estimated
08:42PM 37.4979 132.3381 287° West  Level Estimated
08:43PM 37.5239 132.2289 287° West  Level Estimated
08:44PM 37.5498 132.1197 287° West  Level Estimated
08:45PM 37.5756 132.0104 287° West  Level Estimated
08:46PM 37.6013 131.9010 287° West  Level Estimated
08:47PM 37.6270 131.7915 286° West  Level Estimated
08:48PM 37.6525 131.6819 286° West  Level Estimated
08:49PM 37.6779 131.5723 286° West  Level Estimated
08:50PM 37.7032 131.4626 286° West  Level Estimated
08:51PM 37.7284 131.3528 286° West  Level Estimated
08:52PM 37.7535 131.2429 286° West  Level Estimated
08:53PM 37.7784 131.1335 286° West  Level Estimated
08:54PM 37.8032 131.0240 286° West  Level Estimated
08:55PM 37.8279 130.9145 286° West  Level Estimated
08:56PM 37.8525 130.8049 286° West  Level Estimated
08:57PM 37.8770 130.6952 286° West  Level Estimated
08:58PM 37.9013 130.5854 286° West  Level Estimated
08:59PM 37.9256 130.4756 286° West  Level Estimated
09:00PM 37.9498 130.3656 286° West  Level Estimated
09:01PM 37.9739 130.2556 286° West  Level Estimated
09:02PM 37.9978 130.1456 285° West  Level Estimated
09:03PM 38.0217 130.0354 285° West  Level Estimated
09:04PM 38.0455 129.9252 285° West  Level Estimated
09:05PM 38.0691 129.8150 285° West  Level Estimated
09:06PM 38.0926 129.7052 285° West  Level Estimated
09:07PM 38.1160 129.5953 285° West  Level Estimated
09:08PM 38.1392 129.4853 285° West  Level Estimated
09:09PM 38.1623 129.3753 285° West  Level Estimated
09:10PM 38.1854 129.2652 285° West  Level Estimated
09:11PM 38.2083 129.1550 285° West  Level Estimated
09:12PM 38.2311 129.0448 285° West  Level Estimated
09:13PM 38.2539 128.9344 285° West  Level Estimated
09:14PM 38.2765 128.8241 285° West  Level Estimated
09:15PM 38.2990 128.7136 285° West  Level Estimated
09:16PM 38.3214 128.6031 285° West  Level Estimated
09:17PM 38.3438 128.4925 284° West  Level Estimated
09:18PM 38.3658 128.3829 284° West  Level Estimated
09:19PM 38.3877 128.2732 284° West  Level Estimated
09:20PM 38.4095 128.1635 284° West  Level Estimated
09:21PM 38.4312 128.0537 284° West  Level Estimated
09:22PM 38.4528 127.9438 284° West  Level Estimated
09:23PM 38.4742 127.8339 284° West  Level Estimated
09:24PM 38.4956 127.7239 284° West  Level Estimated
09:25PM 38.5169 127.6138 284° West  Level Estimated
09:26PM 38.5381 127.5037 284° West  Level Estimated
09:27PM 38.5592 127.3935 284° West  Level Estimated
09:28PM 38.5802 127.2832 284° West  Level Estimated
09:29PM 38.6011 127.1724 284° West  Level Estimated
09:30PM 38.6220 127.0615 284° West  Level Estimated
09:31PM 38.6428 126.9505 284° West  Level Estimated
09:32PM 38.6634 126.8394 283° West  Level Estimated
09:33PM 38.6840 126.7283 283° West  Level Estimated
09:34PM 38.7044 126.6172 283° West  Level Estimated
09:35PM 38.7248 126.5059 283° West  Level Estimated
09:36PM 38.7450 126.3946 283° West  Level Estimated
09:37PM 38.7651 126.2833 283° West  Level Estimated
09:38PM 38.7851 126.1719 283° West  Level Estimated
09:39PM 38.8051 126.0604 283° West  Level Estimated
09:40PM 38.8247 125.9499 283° West  Level Estimated
09:41PM 38.8442 125.8393 283° West  Level Estimated
09:42PM 38.8636 125.7287 283° West  Level Estimated
09:43PM 38.8829 125.6180 283° West  Level Estimated
09:44PM 38.9022 125.5073 283° West  Level Estimated
09:45PM 38.9213 125.3965 283° West  Level Estimated
09:46PM 38.9403 125.2856 282° West  Level Estimated
09:47PM 38.9591 125.1747 282° West  Level Estimated
09:48PM 38.9779 125.0637 282° West  Level Estimated
09:49PM 38.9966 124.9527 282° West  Level Estimated
09:50PM 39.0152 124.8416 282° West  Level Estimated
09:51PM 39.0337 124.7304 282° West  Level Estimated
09:52PM 39.0520 124.6192 282° West  Level Estimated
09:53PM 39.0703 124.5079 282° West  Level Estimated
09:54PM 39.0885 124.3966 282° West  Level Estimated
09:55PM 39.1065 124.2852 282° West  Level Estimated
09:56PM 39.1245 124.1738 282° West  Level Estimated
09:57PM 39.1423 124.0623 282° West  Level Estimated
09:58PM 39.1600 123.9507 282° West  Level Estimated
09:59PM 39.1777 123.8391 282° West  Level Estimated
10:00PM 39.1952 123.7274 281° West  Level Estimated
10:01PM 39.2126 123.6157 281° West  Level Estimated
10:02PM 39.2299 123.5040 281° West  Level Estimated
10:03PM 39.2471 123.3921 281° West  Level Estimated
10:04PM 39.2642 123.2802 281° West  Level Estimated
10:05PM 39.2812 123.1683 281° West  Level Estimated
10:06PM 39.2980 123.0563 281° West  Level Estimated
10:07PM 39.3148 122.9442 281° West  Level Estimated
10:08PM 39.3315 122.8321 281° West  Level Estimated
10:09PM 39.3480 122.7200 281° West  Level Estimated
10:10PM 39.3645 122.6078 281° West  Level Estimated
10:11PM 39.3808 122.4955 281° West  Level Estimated
10:12PM 39.3971 122.3832 281° West  Level Estimated
10:13PM 39.4132 122.2708 281° West  Level Estimated
10:14PM 39.4292 122.1584 280° West  Level Estimated
10:15PM 39.4451 122.0459 280° West  Level Estimated
10:16PM 39.4609 121.9334 280° West  Level Estimated
10:17PM 39.4766 121.8208 280° West  Level Estimated
10:18PM 39.4922 121.7082 280° West  Level Estimated
10:19PM 39.5076 121.5961 280° West  Level Estimated
10:20PM 39.5229 121.4839 280° West  Level Estimated
10:21PM 39.5381 121.3716 280° West  Level Estimated
10:22PM 39.5531 121.2594 280° West  Level Estimated
10:23PM 39.5681 121.1470 280° West  Level Estimated
10:24PM 39.5830 121.0346 280° West  Level Estimated
10:25PM 39.5977 120.9222 280° West  Level Estimated
10:26PM 39.6124 120.8097 280° West  Level Estimated
10:27PM 39.6269 120.6972 280° West  Level Estimated
10:28PM 39.6413 120.5846 279° West  Level Estimated
10:29PM 39.6557 120.4719 279° West  Level Estimated
10:30PM 39.6699 120.3593 279° West  Level Estimated
10:31PM 39.6840 120.2466 279° West  Level Estimated
10:32PM 39.6979 120.1338 279° West  Level Estimated
10:33PM 39.7118 120.0210 279° West  Level Estimated
10:34PM 39.7256 119.9081 279° West  Level Estimated
10:34PM 39.7336 119.8423 279° West  Level Estimated
10:35PM 39.7393 119.7952 279° West  Level Estimated
10:36PM 39.7528 119.6823 279° West  Level Estimated
10:36PM 39.7528 119.6823 279° West  Level Estimated
10:37PM 39.7663 119.5693 279° West  Level Estimated
10:37PM 39.7663 119.5693 279° West  Level Estimated
10:38PM 39.7796 119.4563 279° West  Level Estimated
10:38PM 39.7796 119.4563 279° West  Level Estimated
10:39PM 39.7928 119.3432 279° West  Level Estimated
10:39PM 39.7929 119.3432 279° West  Level Estimated
10:40PM 39.8060 119.2300 279° West  Level Estimated
10:40PM 39.8060 119.2301 279° West  Level Estimated
10:41PM 39.8190 119.1169 279° West  Level Estimated
10:41PM 39.8190 119.1169 279° West  Level Estimated
10:42PM 39.8319 119.0037 278° West  Level Estimated
10:42PM 39.8319 119.0037 278° West  Level Estimated
10:43PM 39.8447 118.8904 278° West  Level Estimated
10:43PM 39.8447 118.8904 278° West  Level Estimated
10:44PM 39.8573 118.7771 278° West  Level Estimated
10:44PM 39.8573 118.7771 278° West  Level Estimated
10:45PM 39.8699 118.6638 278° West  Level Estimated
10:45PM 39.8699 118.6638 278° West  Level Estimated
10:46PM 39.8824 118.5504 278° West  Level Estimated
10:46PM 39.8824 118.5504 278° West  Level Estimated
10:47PM 39.8947 118.4370 278° West  Level Estimated
10:47PM 39.8947 118.4370 278° West  Level Estimated
10:48PM 39.9069 118.3235 278° West  Level Estimated
10:48PM 39.9069 118.3235 278° West  Level Estimated
10:49PM 39.9190 118.2101 278° West  Level Estimated
10:49PM 39.9190 118.2101 278° West  Level Estimated
10:50PM 39.9310 118.0965 278° West  Level Estimated
10:50PM 39.9310 118.0965 278° West  Level Estimated
10:51PM 39.9430 117.9829 278° West  Level Estimated
10:51PM 39.9430 117.9829 278° West  Level Estimated
10:52PM 39.9547 117.8693 278° West  Level Estimated
10:52PM 39.9547 117.8693 278° West  Level Estimated
10:53PM 39.9664 117.7557 278° West  Level Estimated
10:53PM 39.9664 117.7557 278° West  Level Estimated
10:54PM 39.9780 117.6420 278° West  Level Estimated
10:54PM 39.9780 117.6420 278° West  Level Estimated
10:55PM 39.9894 117.5282 278° West  Level Estimated
10:55PM 39.9894 117.5282 278° West  Level Estimated
10:56PM 40.0008 117.4145 277° West  Level Estimated
10:56PM 40.0008 117.4145 277° West  Level Estimated
10:57PM 40.0120 117.3007 277° West  Level Estimated
10:57PM 40.0120 117.3007 277° West  Level Estimated
10:58PM 40.0232 117.1868 277° West  Level Estimated
10:58PM 40.0232 117.1868 277° West  Level Estimated
10:59PM 40.0342 117.0729 277° West  Level Estimated
10:59PM 40.0342 117.0729 277° West  Level Estimated
11:00PM 40.0451 116.9590 277° West  Level Estimated
11:00PM 40.0451 116.9590 277° West  Level Estimated
11:01PM 40.0559 116.8451 277° West  Level Estimated
11:01PM 40.0559 116.8451 277° West  Level Estimated
11:02PM 40.0666 116.7311 277° West  Level Estimated
11:02PM 40.0666 116.7311 277° West  Level Estimated
11:03PM 40.0771 116.6171 277° West  Level Estimated
11:04PM 40.0801 116.5846 277° West  Level Estimated
11:05PM 40.0801 116.5846 288° West  Level Estimated
11:06PM 40.0801 116.5846 288° West  Level Estimated
11:07PM 40.0801 116.5846 288° West  Level Estimated
11:08PM 40.0801 116.5846 288° West  Level Estimated